sensor_id;sensor_type;location;lat;lon;timestamp;P1;durP1;ratioP1;P2;durP2;ratioP2
22967;SDS011;11650;48.106;-1.696;2022-12-29T00:01:36;30.07;;;3.97;;
22967;SDS011;11650;48.106;-1.696;2022-12-29T00:04:03;28.40;;;3.87;;
22967;SDS011;11650;48.106;-1.696;2022-12-29T00:06:29;23.40;;;3.53;;
22967;SDS011;11650;48.106;-1.696;2022-12-29T00:08:55;27.97;;;4.13;;
22967;SDS011;11650;48.106;-1.696;2022-12-29T00:11:22;29.60;;;4.10;;
22967;SDS011;11650;48.106;-1.696;2022-12-29T00:13:49;24.33;;;5.00;;
22967;SDS011;11650;48.106;-1.696;2022-12-29T00:16:34;22.70;;;3.60;;
22967;SDS011;11650;48.106;-1.696;2022-12-29T00:19:00;21.50;;;3.70;;
22967;SDS011;11650;48.106;-1.696;2022-12-29T00:21:27;25.50;;;3.80;;
22967;SDS011;11650;48.106;-1.696;2022-12-29T00:24:21;25.00;;;4.30;;
22967;SDS011;11650;48.106;-1.696;2022-12-29T00:26:48;24.87;;;3.37;;
22967;SDS011;11650;48.106;-1.696;2022-12-29T00:29:36;19.53;;;2.77;;
22967;SDS011;11650;48.106;-1.696;2022-12-29T00:32:20;30.47;;;4.50;;
22967;SDS011;11650;48.106;-1.696;2022-12-29T00:35:04;20.77;;;4.10;;
22967;SDS011;11650;48.106;-1.696;2022-12-29T00:37:36;26.23;;;4.20;;
22967;SDS011;11650;48.106;-1.696;2022-12-29T00:40:26;29.27;;;3.90;;
22967;SDS011;11650;48.106;-1.696;2022-12-29T00:43:10;20.20;;;3.37;;
22967;SDS011;11650;48.106;-1.696;2022-12-29T00:45:54;23.40;;;4.13;;
22967;SDS011;11650;48.106;-1.696;2022-12-29T00:48:20;27.23;;;4.27;;
22967;SDS011;11650;48.106;-1.696;2022-12-29T00:51:04;29.80;;;4.47;;
22967;SDS011;11650;48.106;-1.696;2022-12-29T00:53:30;23.27;;;3.53;;
22967;SDS011;11650;48.106;-1.696;2022-12-29T00:55:56;21.60;;;3.60;;
22967;SDS011;11650;48.106;-1.696;2022-12-29T00:58:22;21.17;;;3.53;;
22967;SDS011;11650;48.106;-1.696;2022-12-29T01:00:47;25.40;;;3.67;;
22967;SDS011;11650;48.106;-1.696;2022-12-29T01:03:13;28.60;;;3.60;;
22967;SDS011;11650;48.106;-1.696;2022-12-29T01:05:38;31.50;;;5.30;;
22967;SDS011;11650;48.106;-1.696;2022-12-29T01:08:04;21.27;;;3.83;;
22967;SDS011;11650;48.106;-1.696;2022-12-29T01:10:30;25.07;;;3.97;;
22967;SDS011;11650;48.106;-1.696;2022-12-29T01:12:55;24.03;;;3.83;;
22967;SDS011;11650;48.106;-1.696;2022-12-29T01:15:21;27.60;;;4.20;;
22967;SDS011;11650;48.106;-1.696;2022-12-29T01:17:47;24.53;;;3.93;;
22967;SDS011;11650;48.106;-1.696;2022-12-29T01:20:12;32.57;;;4.07;;
22967;SDS011;11650;48.106;-1.696;2022-12-29T01:22:38;26.97;;;4.83;;
22967;SDS011;11650;48.106;-1.696;2022-12-29T01:25:05;26.60;;;3.80;;
22967;SDS011;11650;48.106;-1.696;2022-12-29T01:27:31;16.77;;;3.07;;
22967;SDS011;11650;48.106;-1.696;2022-12-29T01:29:57;30.30;;;4.40;;
22967;SDS011;11650;48.106;-1.696;2022-12-29T01:32:22;24.87;;;3.30;;
22967;SDS011;11650;48.106;-1.696;2022-12-29T01:34:48;21.63;;;4.33;;
22967;SDS011;11650;48.106;-1.696;2022-12-29T01:37:13;15.03;;;2.77;;
22967;SDS011;11650;48.106;-1.696;2022-12-29T01:39:39;22.07;;;3.67;;
22967;SDS011;11650;48.106;-1.696;2022-12-29T01:42:05;20.93;;;4.37;;
22967;SDS011;11650;48.106;-1.696;2022-12-29T01:47:41;17.53;;;2.63;;
22967;SDS011;11650;48.106;-1.696;2022-12-29T01:50:26;21.43;;;3.00;;
22967;SDS011;11650;48.106;-1.696;2022-12-29T01:52:57;18.60;;;2.20;;
22967;SDS011;11650;48.106;-1.696;2022-12-29T01:55:33;21.33;;;2.73;;
22967;SDS011;11650;48.106;-1.696;2022-12-29T01:58:03;20.10;;;3.63;;
22967;SDS011;11650;48.106;-1.696;2022-12-29T02:00:31;18.53;;;2.63;;
22967;SDS011;11650;48.106;-1.696;2022-12-29T02:02:57;16.23;;;2.67;;
22967;SDS011;11650;48.106;-1.696;2022-12-29T02:05:32;14.07;;;2.80;;
22967;SDS011;11650;48.106;-1.696;2022-12-29T02:08:03;19.97;;;2.80;;
22967;SDS011;11650;48.106;-1.696;2022-12-29T02:10:30;14.40;;;2.73;;
22967;SDS011;11650;48.106;-1.696;2022-12-29T02:12:57;17.47;;;2.63;;
22967;SDS011;11650;48.106;-1.696;2022-12-29T02:15:27;21.17;;;3.10;;
22967;SDS011;11650;48.106;-1.696;2022-12-29T02:31:46;17.97;;;3.10;;
22967;SDS011;11650;48.106;-1.696;2022-12-29T02:37:14;22.77;;;3.53;;
22967;SDS011;11650;48.106;-1.696;2022-12-29T02:42:27;22.20;;;3.77;;
22967;SDS011;11650;48.106;-1.696;2022-12-29T02:45:12;18.40;;;2.93;;
22967;SDS011;11650;48.106;-1.696;2022-12-29T02:50:39;17.63;;;2.53;;
22967;SDS011;11650;48.106;-1.696;2022-12-29T02:53:13;17.43;;;3.27;;
22967;SDS011;11650;48.106;-1.696;2022-12-29T02:55:48;24.27;;;3.60;;
22967;SDS011;11650;48.106;-1.696;2022-12-29T02:58:16;18.33;;;3.10;;
22967;SDS011;11650;48.106;-1.696;2022-12-29T03:00:59;22.80;;;3.57;;
22967;SDS011;11650;48.106;-1.696;2022-12-29T03:06:30;24.57;;;3.80;;
22967;SDS011;11650;48.106;-1.696;2022-12-29T03:09:16;24.47;;;3.43;;
22967;SDS011;11650;48.106;-1.696;2022-12-29T03:12:20;28.43;;;3.80;;
22967;SDS011;11650;48.106;-1.696;2022-12-29T03:15:00;21.90;;;3.33;;
22967;SDS011;11650;48.106;-1.696;2022-12-29T03:17:55;23.57;;;3.53;;
22967;SDS011;11650;48.106;-1.696;2022-12-29T03:20:31;22.30;;;3.07;;
22967;SDS011;11650;48.106;-1.696;2022-12-29T03:23:06;15.67;;;2.90;;
22967;SDS011;11650;48.106;-1.696;2022-12-29T03:25:37;23.47;;;3.47;;
22967;SDS011;11650;48.106;-1.696;2022-12-29T03:28:09;18.47;;;3.03;;
22967;SDS011;11650;48.106;-1.696;2022-12-29T03:30:38;19.47;;;3.33;;
22967;SDS011;11650;48.106;-1.696;2022-12-29T03:33:09;19.77;;;3.17;;
22967;SDS011;11650;48.106;-1.696;2022-12-29T03:35:40;15.40;;;3.13;;
22967;SDS011;11650;48.106;-1.696;2022-12-29T03:40:36;18.57;;;2.90;;
22967;SDS011;11650;48.106;-1.696;2022-12-29T03:43:04;20.60;;;3.10;;
22967;SDS011;11650;48.106;-1.696;2022-12-29T03:45:30;23.77;;;2.60;;
22967;SDS011;11650;48.106;-1.696;2022-12-29T03:47:56;21.47;;;3.27;;
22967;SDS011;11650;48.106;-1.696;2022-12-29T03:50:22;17.43;;;2.60;;
22967;SDS011;11650;48.106;-1.696;2022-12-29T03:52:47;20.97;;;3.33;;
22967;SDS011;11650;48.106;-1.696;2022-12-29T03:55:13;21.50;;;3.20;;
22967;SDS011;11650;48.106;-1.696;2022-12-29T03:57:39;16.70;;;3.13;;
22967;SDS011;11650;48.106;-1.696;2022-12-29T04:00:05;14.07;;;2.80;;
22967;SDS011;11650;48.106;-1.696;2022-12-29T04:02:31;22.93;;;3.20;;
22967;SDS011;11650;48.106;-1.696;2022-12-29T04:04:57;18.27;;;3.03;;
22967;SDS011;11650;48.106;-1.696;2022-12-29T04:07:23;26.33;;;3.67;;
22967;SDS011;11650;48.106;-1.696;2022-12-29T04:09:48;23.27;;;3.67;;
22967;SDS011;11650;48.106;-1.696;2022-12-29T04:12:14;26.50;;;3.47;;
22967;SDS011;11650;48.106;-1.696;2022-12-29T04:14:40;18.37;;;3.20;;
22967;SDS011;11650;48.106;-1.696;2022-12-29T04:17:06;27.23;;;4.00;;
22967;SDS011;11650;48.106;-1.696;2022-12-29T04:19:31;18.83;;;2.70;;
22967;SDS011;11650;48.106;-1.696;2022-12-29T04:21:57;27.30;;;3.43;;
22967;SDS011;11650;48.106;-1.696;2022-12-29T04:24:23;19.97;;;3.53;;
22967;SDS011;11650;48.106;-1.696;2022-12-29T04:26:48;25.33;;;3.50;;
22967;SDS011;11650;48.106;-1.696;2022-12-29T04:29:14;18.17;;;3.10;;
22967;SDS011;11650;48.106;-1.696;2022-12-29T04:31:40;24.07;;;3.97;;
22967;SDS011;11650;48.106;-1.696;2022-12-29T04:34:06;21.63;;;3.90;;
22967;SDS011;11650;48.106;-1.696;2022-12-29T04:36:31;25.77;;;4.20;;
22967;SDS011;11650;48.106;-1.696;2022-12-29T04:38:57;24.03;;;3.97;;
22967;SDS011;11650;48.106;-1.696;2022-12-29T04:41:23;34.20;;;4.30;;
22967;SDS011;11650;48.106;-1.696;2022-12-29T04:43:49;24.70;;;3.63;;
22967;SDS011;11650;48.106;-1.696;2022-12-29T04:46:14;34.43;;;4.20;;
22967;SDS011;11650;48.106;-1.696;2022-12-29T04:48:40;29.67;;;3.87;;
22967;SDS011;11650;48.106;-1.696;2022-12-29T04:51:06;25.97;;;3.63;;
22967;SDS011;11650;48.106;-1.696;2022-12-29T04:53:31;24.93;;;4.43;;
22967;SDS011;11650;48.106;-1.696;2022-12-29T04:55:57;22.93;;;3.03;;
22967;SDS011;11650;48.106;-1.696;2022-12-29T04:58:23;19.17;;;3.30;;
22967;SDS011;11650;48.106;-1.696;2022-12-29T05:00:49;24.60;;;4.40;;
22967;SDS011;11650;48.106;-1.696;2022-12-29T05:03:15;25.40;;;3.60;;
22967;SDS011;11650;48.106;-1.696;2022-12-29T05:05:41;24.67;;;3.40;;
22967;SDS011;11650;48.106;-1.696;2022-12-29T05:08:07;24.73;;;4.00;;
22967;SDS011;11650;48.106;-1.696;2022-12-29T05:10:32;25.00;;;3.40;;
22967;SDS011;11650;48.106;-1.696;2022-12-29T05:12:58;28.23;;;4.43;;
22967;SDS011;11650;48.106;-1.696;2022-12-29T05:15:24;29.33;;;4.13;;
22967;SDS011;11650;48.106;-1.696;2022-12-29T05:17:49;32.00;;;4.63;;
22967;SDS011;11650;48.106;-1.696;2022-12-29T05:20:15;27.57;;;4.87;;
22967;SDS011;11650;48.106;-1.696;2022-12-29T05:22:40;29.83;;;4.60;;
22967;SDS011;11650;48.106;-1.696;2022-12-29T05:25:06;33.23;;;3.47;;
22967;SDS011;11650;48.106;-1.696;2022-12-29T05:27:32;27.47;;;4.00;;
22967;SDS011;11650;48.106;-1.696;2022-12-29T05:29:58;27.77;;;4.60;;
22967;SDS011;11650;48.106;-1.696;2022-12-29T05:32:23;31.90;;;4.37;;
22967;SDS011;11650;48.106;-1.696;2022-12-29T05:34:49;28.07;;;4.60;;
22967;SDS011;11650;48.106;-1.696;2022-12-29T05:37:15;33.33;;;4.70;;
22967;SDS011;11650;48.106;-1.696;2022-12-29T05:39:40;27.30;;;3.87;;
22967;SDS011;11650;48.106;-1.696;2022-12-29T05:42:06;21.67;;;3.10;;
22967;SDS011;11650;48.106;-1.696;2022-12-29T05:44:32;28.27;;;4.30;;
22967;SDS011;11650;48.106;-1.696;2022-12-29T05:46:57;25.43;;;3.83;;
22967;SDS011;11650;48.106;-1.696;2022-12-29T05:49:23;20.97;;;4.10;;
22967;SDS011;11650;48.106;-1.696;2022-12-29T05:51:49;28.00;;;4.00;;
22967;SDS011;11650;48.106;-1.696;2022-12-29T05:54:14;29.93;;;4.43;;
22967;SDS011;11650;48.106;-1.696;2022-12-29T05:56:40;25.87;;;4.23;;
22967;SDS011;11650;48.106;-1.696;2022-12-29T05:59:06;26.73;;;4.87;;
22967;SDS011;11650;48.106;-1.696;2022-12-29T06:01:32;30.00;;;4.30;;
22967;SDS011;11650;48.106;-1.696;2022-12-29T06:03:59;31.10;;;4.60;;
22967;SDS011;11650;48.106;-1.696;2022-12-29T06:06:25;23.10;;;3.93;;
22967;SDS011;11650;48.106;-1.696;2022-12-29T06:08:50;29.57;;;4.30;;
22967;SDS011;11650;48.106;-1.696;2022-12-29T06:11:16;29.33;;;4.20;;
22967;SDS011;11650;48.106;-1.696;2022-12-29T06:13:42;33.83;;;4.23;;
22967;SDS011;11650;48.106;-1.696;2022-12-29T06:16:07;24.63;;;4.30;;
22967;SDS011;11650;48.106;-1.696;2022-12-29T06:18:33;31.23;;;4.43;;
22967;SDS011;11650;48.106;-1.696;2022-12-29T06:20:59;35.87;;;5.13;;
22967;SDS011;11650;48.106;-1.696;2022-12-29T06:23:26;29.23;;;4.53;;
22967;SDS011;11650;48.106;-1.696;2022-12-29T06:25:52;31.03;;;4.40;;
22967;SDS011;11650;48.106;-1.696;2022-12-29T06:28:18;29.67;;;4.97;;
22967;SDS011;11650;48.106;-1.696;2022-12-29T06:30:44;31.97;;;4.97;;
22967;SDS011;11650;48.106;-1.696;2022-12-29T06:33:10;32.30;;;5.07;;
22967;SDS011;11650;48.106;-1.696;2022-12-29T06:35:37;26.53;;;4.47;;
22967;SDS011;11650;48.106;-1.696;2022-12-29T06:38:02;28.53;;;4.20;;
22967;SDS011;11650;48.106;-1.696;2022-12-29T06:40:28;29.03;;;4.93;;
22967;SDS011;11650;48.106;-1.696;2022-12-29T06:42:54;36.50;;;5.23;;
22967;SDS011;11650;48.106;-1.696;2022-12-29T06:45:20;27.10;;;4.43;;
22967;SDS011;11650;48.106;-1.696;2022-12-29T06:47:46;27.70;;;5.40;;
22967;SDS011;11650;48.106;-1.696;2022-12-29T06:50:11;31.87;;;5.27;;
22967;SDS011;11650;48.106;-1.696;2022-12-29T06:52:37;30.33;;;5.20;;
22967;SDS011;11650;48.106;-1.696;2022-12-29T06:55:03;33.53;;;5.33;;
22967;SDS011;11650;48.106;-1.696;2022-12-29T06:57:28;29.10;;;4.83;;
22967;SDS011;11650;48.106;-1.696;2022-12-29T06:59:54;31.13;;;6.17;;
22967;SDS011;11650;48.106;-1.696;2022-12-29T07:02:23;30.20;;;4.60;;
22967;SDS011;11650;48.106;-1.696;2022-12-29T07:04:50;33.77;;;4.77;;
22967;SDS011;11650;48.106;-1.696;2022-12-29T07:07:17;37.47;;;5.30;;
22967;SDS011;11650;48.106;-1.696;2022-12-29T07:09:43;30.03;;;5.03;;
22967;SDS011;11650;48.106;-1.696;2022-12-29T07:12:09;25.53;;;4.17;;
22967;SDS011;11650;48.106;-1.696;2022-12-29T07:14:35;29.23;;;4.13;;
22967;SDS011;11650;48.106;-1.696;2022-12-29T07:17:01;30.90;;;4.37;;
22967;SDS011;11650;48.106;-1.696;2022-12-29T07:19:30;25.93;;;4.17;;
22967;SDS011;11650;48.106;-1.696;2022-12-29T07:21:56;32.37;;;4.80;;
22967;SDS011;11650;48.106;-1.696;2022-12-29T07:24:21;42.87;;;5.50;;
22967;SDS011;11650;48.106;-1.696;2022-12-29T07:26:47;30.47;;;4.70;;
22967;SDS011;11650;48.106;-1.696;2022-12-29T07:29:12;26.00;;;3.97;;
22967;SDS011;11650;48.106;-1.696;2022-12-29T07:31:38;28.67;;;4.50;;
22967;SDS011;11650;48.106;-1.696;2022-12-29T07:34:04;32.70;;;4.43;;
22967;SDS011;11650;48.106;-1.696;2022-12-29T07:36:29;27.37;;;4.23;;
22967;SDS011;11650;48.106;-1.696;2022-12-29T07:38:55;32.27;;;4.07;;
22967;SDS011;11650;48.106;-1.696;2022-12-29T07:41:21;29.00;;;4.77;;
22967;SDS011;11650;48.106;-1.696;2022-12-29T07:43:47;29.23;;;3.87;;
22967;SDS011;11650;48.106;-1.696;2022-12-29T07:46:13;21.60;;;3.73;;
22967;SDS011;11650;48.106;-1.696;2022-12-29T07:48:39;31.30;;;5.10;;
22967;SDS011;11650;48.106;-1.696;2022-12-29T07:51:05;29.77;;;4.43;;
22967;SDS011;11650;48.106;-1.696;2022-12-29T07:53:31;30.27;;;4.43;;
22967;SDS011;11650;48.106;-1.696;2022-12-29T07:55:57;33.30;;;5.07;;
22967;SDS011;11650;48.106;-1.696;2022-12-29T07:58:23;34.93;;;5.10;;
22967;SDS011;11650;48.106;-1.696;2022-12-29T08:00:52;26.20;;;3.97;;
22967;SDS011;11650;48.106;-1.696;2022-12-29T08:03:21;26.63;;;4.77;;
22967;SDS011;11650;48.106;-1.696;2022-12-29T08:05:47;32.27;;;5.13;;
22967;SDS011;11650;48.106;-1.696;2022-12-29T08:08:13;36.97;;;5.37;;
22967;SDS011;11650;48.106;-1.696;2022-12-29T08:10:39;34.20;;;5.60;;
22967;SDS011;11650;48.106;-1.696;2022-12-29T08:13:04;26.17;;;4.53;;
22967;SDS011;11650;48.106;-1.696;2022-12-29T08:15:30;30.57;;;4.27;;
22967;SDS011;11650;48.106;-1.696;2022-12-29T08:17:55;31.07;;;4.47;;
22967;SDS011;11650;48.106;-1.696;2022-12-29T08:20:21;31.80;;;5.10;;
22967;SDS011;11650;48.106;-1.696;2022-12-29T08:22:47;30.50;;;4.53;;
22967;SDS011;11650;48.106;-1.696;2022-12-29T08:25:12;32.10;;;4.83;;
22967;SDS011;11650;48.106;-1.696;2022-12-29T08:27:38;24.33;;;3.93;;
22967;SDS011;11650;48.106;-1.696;2022-12-29T08:30:04;30.63;;;4.30;;
22967;SDS011;11650;48.106;-1.696;2022-12-29T08:32:30;28.70;;;4.03;;
22967;SDS011;11650;48.106;-1.696;2022-12-29T08:34:56;33.20;;;5.30;;
22967;SDS011;11650;48.106;-1.696;2022-12-29T08:37:22;35.17;;;4.77;;
22967;SDS011;11650;48.106;-1.696;2022-12-29T08:39:47;31.43;;;4.77;;
22967;SDS011;11650;48.106;-1.696;2022-12-29T08:42:13;30.97;;;4.33;;
22967;SDS011;11650;48.106;-1.696;2022-12-29T08:44:39;27.87;;;4.17;;
22967;SDS011;11650;48.106;-1.696;2022-12-29T08:47:05;22.90;;;4.33;;
22967;SDS011;11650;48.106;-1.696;2022-12-29T08:49:31;30.47;;;4.80;;
22967;SDS011;11650;48.106;-1.696;2022-12-29T08:51:58;30.07;;;4.50;;
22967;SDS011;11650;48.106;-1.696;2022-12-29T08:54:24;27.17;;;4.23;;
22967;SDS011;11650;48.106;-1.696;2022-12-29T08:56:50;31.90;;;5.23;;
22967;SDS011;11650;48.106;-1.696;2022-12-29T08:59:15;25.83;;;3.90;;
22967;SDS011;11650;48.106;-1.696;2022-12-29T09:01:41;23.70;;;5.13;;
22967;SDS011;11650;48.106;-1.696;2022-12-29T09:04:07;34.80;;;5.23;;
22967;SDS011;11650;48.106;-1.696;2022-12-29T09:06:33;28.10;;;4.33;;
22967;SDS011;11650;48.106;-1.696;2022-12-29T09:08:59;33.03;;;5.07;;
22967;SDS011;11650;48.106;-1.696;2022-12-29T09:11:24;37.67;;;5.53;;
22967;SDS011;11650;48.106;-1.696;2022-12-29T09:13:51;29.17;;;4.47;;
22967;SDS011;11650;48.106;-1.696;2022-12-29T09:16:17;35.93;;;4.73;;
22967;SDS011;11650;48.106;-1.696;2022-12-29T09:18:44;26.90;;;4.30;;
22967;SDS011;11650;48.106;-1.696;2022-12-29T09:21:10;23.60;;;4.50;;
22967;SDS011;11650;48.106;-1.696;2022-12-29T09:23:37;36.70;;;4.93;;
22967;SDS011;11650;48.106;-1.696;2022-12-29T09:26:03;33.03;;;4.80;;
22967;SDS011;11650;48.106;-1.696;2022-12-29T09:28:29;39.60;;;4.93;;
22967;SDS011;11650;48.106;-1.696;2022-12-29T09:30:56;34.77;;;5.30;;
22967;SDS011;11650;48.106;-1.696;2022-12-29T09:33:22;22.23;;;4.40;;
22967;SDS011;11650;48.106;-1.696;2022-12-29T09:35:53;23.77;;;4.00;;
22967;SDS011;11650;48.106;-1.696;2022-12-29T09:38:23;25.47;;;4.87;;
22967;SDS011;11650;48.106;-1.696;2022-12-29T09:40:51;29.10;;;4.57;;
22967;SDS011;11650;48.106;-1.696;2022-12-29T09:48:53;24.03;;;4.23;;
22967;SDS011;11650;48.106;-1.696;2022-12-29T09:51:25;32.00;;;4.93;;
22967;SDS011;11650;48.106;-1.696;2022-12-29T09:54:02;29.70;;;4.43;;
22967;SDS011;11650;48.106;-1.696;2022-12-29T09:56:40;28.87;;;4.63;;
22967;SDS011;11650;48.106;-1.696;2022-12-29T09:59:14;18.37;;;3.43;;
22967;SDS011;11650;48.106;-1.696;2022-12-29T10:01:46;27.23;;;4.10;;
22967;SDS011;11650;48.106;-1.696;2022-12-29T10:04:27;28.53;;;4.47;;
22967;SDS011;11650;48.106;-1.696;2022-12-29T10:06:58;27.93;;;4.63;;
22967;SDS011;11650;48.106;-1.696;2022-12-29T10:09:34;24.87;;;4.40;;
22967;SDS011;11650;48.106;-1.696;2022-12-29T10:15:18;24.40;;;4.40;;
22967;SDS011;11650;48.106;-1.696;2022-12-29T10:23:29;22.20;;;4.30;;
22967;SDS011;11650;48.106;-1.696;2022-12-29T10:26:14;17.37;;;3.73;;
22967;SDS011;11650;48.106;-1.696;2022-12-29T10:28:43;20.57;;;3.50;;
22967;SDS011;11650;48.106;-1.696;2022-12-29T10:31:16;20.80;;;3.00;;
22967;SDS011;11650;48.106;-1.696;2022-12-29T10:33:46;21.23;;;3.83;;
22967;SDS011;11650;48.106;-1.696;2022-12-29T10:36:18;28.10;;;4.10;;
22967;SDS011;11650;48.106;-1.696;2022-12-29T10:44:16;22.67;;;3.43;;
22967;SDS011;11650;48.106;-1.696;2022-12-29T10:46:43;23.20;;;4.00;;
22967;SDS011;11650;48.106;-1.696;2022-12-29T10:49:16;26.03;;;3.83;;
22967;SDS011;11650;48.106;-1.696;2022-12-29T10:51:43;21.17;;;3.70;;
22967;SDS011;11650;48.106;-1.696;2022-12-29T10:56:42;16.33;;;3.10;;
22967;SDS011;11650;48.106;-1.696;2022-12-29T10:59:24;14.00;;;2.70;;
22967;SDS011;11650;48.106;-1.696;2022-12-29T11:01:56;24.00;;;3.40;;
22967;SDS011;11650;48.106;-1.696;2022-12-29T11:07:17;18.60;;;3.00;;
22967;SDS011;11650;48.106;-1.696;2022-12-29T11:09:44;22.27;;;4.67;;
22967;SDS011;11650;48.106;-1.696;2022-12-29T11:12:27;22.67;;;3.47;;
22967;SDS011;11650;48.106;-1.696;2022-12-29T11:15:28;23.43;;;3.57;;
22967;SDS011;11650;48.106;-1.696;2022-12-29T11:17:50;15.40;;;3.00;;
22967;SDS011;11650;48.106;-1.696;2022-12-29T11:20:30;18.00;;;3.10;;
22967;SDS011;11650;48.106;-1.696;2022-12-29T11:22:56;20.77;;;3.80;;
22967;SDS011;11650;48.106;-1.696;2022-12-29T11:25:22;19.43;;;4.17;;
22967;SDS011;11650;48.106;-1.696;2022-12-29T11:28:01;20.80;;;3.63;;
22967;SDS011;11650;48.106;-1.696;2022-12-29T11:30:41;21.93;;;3.20;;
22967;SDS011;11650;48.106;-1.696;2022-12-29T11:33:07;14.17;;;2.90;;
22967;SDS011;11650;48.106;-1.696;2022-12-29T11:38:18;16.23;;;3.00;;
22967;SDS011;11650;48.106;-1.696;2022-12-29T11:40:47;17.13;;;2.70;;
22967;SDS011;11650;48.106;-1.696;2022-12-29T11:43:34;13.50;;;3.00;;
22967;SDS011;11650;48.106;-1.696;2022-12-29T11:46:02;17.77;;;3.07;;
22967;SDS011;11650;48.106;-1.696;2022-12-29T11:48:29;18.47;;;3.63;;
22967;SDS011;11650;48.106;-1.696;2022-12-29T11:51:02;13.80;;;3.07;;
22967;SDS011;11650;48.106;-1.696;2022-12-29T11:53:39;24.80;;;3.40;;
22967;SDS011;11650;48.106;-1.696;2022-12-29T11:56:13;17.47;;;3.27;;
22967;SDS011;11650;48.106;-1.696;2022-12-29T11:58:40;15.80;;;3.07;;
22967;SDS011;11650;48.106;-1.696;2022-12-29T12:01:09;23.97;;;4.00;;
22967;SDS011;11650;48.106;-1.696;2022-12-29T12:03:50;22.67;;;3.50;;
22967;SDS011;11650;48.106;-1.696;2022-12-29T12:06:22;22.87;;;3.50;;
22967;SDS011;11650;48.106;-1.696;2022-12-29T12:08:56;21.47;;;3.43;;
22967;SDS011;11650;48.106;-1.696;2022-12-29T12:11:36;19.33;;;2.77;;
22967;SDS011;11650;48.106;-1.696;2022-12-29T12:16:37;20.80;;;4.03;;
22967;SDS011;11650;48.106;-1.696;2022-12-29T12:22:31;16.53;;;2.70;;
22967;SDS011;11650;48.106;-1.696;2022-12-29T12:25:03;19.77;;;2.90;;
22967;SDS011;11650;48.106;-1.696;2022-12-29T12:27:41;14.30;;;3.13;;
22967;SDS011;11650;48.106;-1.696;2022-12-29T12:32:56;16.93;;;3.23;;
22967;SDS011;11650;48.106;-1.696;2022-12-29T12:38:05;19.63;;;3.93;;
22967;SDS011;11650;48.106;-1.696;2022-12-29T13:01:59;20.80;;;3.83;;
22967;SDS011;11650;48.106;-1.696;2022-12-29T13:09:59;26.87;;;3.70;;
22967;SDS011;11650;48.106;-1.696;2022-12-29T13:20:41;14.83;;;2.27;;
22967;SDS011;11650;48.106;-1.696;2022-12-29T13:26:11;19.43;;;3.40;;
22967;SDS011;11650;48.106;-1.696;2022-12-29T13:40:43;13.70;;;3.13;;
22967;SDS011;11650;48.106;-1.696;2022-12-29T13:43:15;18.87;;;3.57;;
22967;SDS011;11650;48.106;-1.696;2022-12-29T13:45:41;16.10;;;2.87;;
22967;SDS011;11650;48.106;-1.696;2022-12-29T13:48:22;18.00;;;3.70;;
22967;SDS011;11650;48.106;-1.696;2022-12-29T13:50:57;15.07;;;2.60;;
22967;SDS011;11650;48.106;-1.696;2022-12-29T14:04:14;10.63;;;2.07;;
22967;SDS011;11650;48.106;-1.696;2022-12-29T14:06:46;9.57;;;1.83;;
22967;SDS011;11650;48.106;-1.696;2022-12-29T14:12:19;9.60;;;2.27;;
22967;SDS011;11650;48.106;-1.696;2022-12-29T14:15:06;11.53;;;2.40;;
22967;SDS011;11650;48.106;-1.696;2022-12-29T14:17:35;9.80;;;2.10;;
22967;SDS011;11650;48.106;-1.696;2022-12-29T14:20:02;11.80;;;2.13;;
22967;SDS011;11650;48.106;-1.696;2022-12-29T14:22:32;9.50;;;1.90;;
22967;SDS011;11650;48.106;-1.696;2022-12-29T14:24:58;10.23;;;2.60;;
22967;SDS011;11650;48.106;-1.696;2022-12-29T14:29:53;9.97;;;1.60;;
22967;SDS011;11650;48.106;-1.696;2022-12-29T14:34:51;7.30;;;2.00;;
22967;SDS011;11650;48.106;-1.696;2022-12-29T14:40:14;9.80;;;1.97;;
22967;SDS011;11650;48.106;-1.696;2022-12-29T14:43:06;13.80;;;3.37;;
22967;SDS011;11650;48.106;-1.696;2022-12-29T14:45:51;13.47;;;2.37;;
22967;SDS011;11650;48.106;-1.696;2022-12-29T14:48:21;10.50;;;1.97;;
22967;SDS011;11650;48.106;-1.696;2022-12-29T14:50:55;9.37;;;2.07;;
22967;SDS011;11650;48.106;-1.696;2022-12-29T14:56:16;8.43;;;2.13;;
22967;SDS011;11650;48.106;-1.696;2022-12-29T15:01:20;9.47;;;2.93;;
22967;SDS011;11650;48.106;-1.696;2022-12-29T15:04:15;11.37;;;2.70;;
22967;SDS011;11650;48.106;-1.696;2022-12-29T15:06:44;13.87;;;2.33;;
22967;SDS011;11650;48.106;-1.696;2022-12-29T15:09:17;13.07;;;2.83;;
22967;SDS011;11650;48.106;-1.696;2022-12-29T15:11:49;13.70;;;2.53;;
22967;SDS011;11650;48.106;-1.696;2022-12-29T15:14:52;8.43;;;2.73;;
22967;SDS011;11650;48.106;-1.696;2022-12-29T15:19:48;7.27;;;2.03;;
22967;SDS011;11650;48.106;-1.696;2022-12-29T15:22:14;14.07;;;3.00;;
22967;SDS011;11650;48.106;-1.696;2022-12-29T15:24:43;14.23;;;2.07;;
22967;SDS011;11650;48.106;-1.696;2022-12-29T15:27:10;13.20;;;2.80;;
22967;SDS011;11650;48.106;-1.696;2022-12-29T15:29:40;8.90;;;1.77;;
22967;SDS011;11650;48.106;-1.696;2022-12-29T15:32:22;13.87;;;2.40;;
22967;SDS011;11650;48.106;-1.696;2022-12-29T15:34:51;12.83;;;2.13;;
22967;SDS011;11650;48.106;-1.696;2022-12-29T15:37:28;7.83;;;1.90;;
22967;SDS011;11650;48.106;-1.696;2022-12-29T15:39:58;8.83;;;2.10;;
22967;SDS011;11650;48.106;-1.696;2022-12-29T15:45:16;8.00;;;1.73;;
22967;SDS011;11650;48.106;-1.696;2022-12-29T15:47:43;5.40;;;1.77;;
22967;SDS011;11650;48.106;-1.696;2022-12-29T15:52:45;7.00;;;1.70;;
22967;SDS011;11650;48.106;-1.696;2022-12-29T15:55:32;8.47;;;2.17;;
22967;SDS011;11650;48.106;-1.696;2022-12-29T15:57:59;9.53;;;1.33;;
22967;SDS011;11650;48.106;-1.696;2022-12-29T16:00:28;2.33;;;1.30;;
22967;SDS011;11650;48.106;-1.696;2022-12-29T16:02:54;3.53;;;1.10;;
22967;SDS011;11650;48.106;-1.696;2022-12-29T16:05:21;7.97;;;1.33;;
22967;SDS011;11650;48.106;-1.696;2022-12-29T16:07:57;3.30;;;1.57;;
22967;SDS011;11650;48.106;-1.696;2022-12-29T16:10:37;7.80;;;1.93;;
22967;SDS011;11650;48.106;-1.696;2022-12-29T16:15:55;6.90;;;1.60;;
22967;SDS011;11650;48.106;-1.696;2022-12-29T16:18:28;6.23;;;1.67;;
22967;SDS011;11650;48.106;-1.696;2022-12-29T16:20:59;7.77;;;2.10;;
22967;SDS011;11650;48.106;-1.696;2022-12-29T16:23:26;9.17;;;2.23;;
22967;SDS011;11650;48.106;-1.696;2022-12-29T16:25:54;8.07;;;1.93;;
22967;SDS011;11650;48.106;-1.696;2022-12-29T16:28:40;11.97;;;2.37;;
22967;SDS011;11650;48.106;-1.696;2022-12-29T16:31:15;15.20;;;2.67;;
22967;SDS011;11650;48.106;-1.696;2022-12-29T16:33:52;11.83;;;2.67;;
22967;SDS011;11650;48.106;-1.696;2022-12-29T16:36:23;12.47;;;3.40;;
22967;SDS011;11650;48.106;-1.696;2022-12-29T16:39:15;12.93;;;2.97;;
22967;SDS011;11650;48.106;-1.696;2022-12-29T16:41:47;10.80;;;3.17;;
22967;SDS011;11650;48.106;-1.696;2022-12-29T16:44:29;9.73;;;2.87;;
22967;SDS011;11650;48.106;-1.696;2022-12-29T16:49:28;9.97;;;2.90;;
22967;SDS011;11650;48.106;-1.696;2022-12-29T16:51:55;13.43;;;3.03;;
22967;SDS011;11650;48.106;-1.696;2022-12-29T16:54:24;11.97;;;2.70;;
22967;SDS011;11650;48.106;-1.696;2022-12-29T16:57:04;9.43;;;2.60;;
22967;SDS011;11650;48.106;-1.696;2022-12-29T16:59:39;17.57;;;3.30;;
22967;SDS011;11650;48.106;-1.696;2022-12-29T17:02:14;10.23;;;3.27;;
22967;SDS011;11650;48.106;-1.696;2022-12-29T17:04:43;12.33;;;3.87;;
22967;SDS011;11650;48.106;-1.696;2022-12-29T17:07:23;11.97;;;4.33;;
22967;SDS011;11650;48.106;-1.696;2022-12-29T17:09:50;14.53;;;3.77;;
22967;SDS011;11650;48.106;-1.696;2022-12-29T17:12:19;10.43;;;3.70;;
22967;SDS011;11650;48.106;-1.696;2022-12-29T17:14:57;17.67;;;5.30;;
22967;SDS011;11650;48.106;-1.696;2022-12-29T17:17:47;13.40;;;5.67;;
22967;SDS011;11650;48.106;-1.696;2022-12-29T17:20:25;15.57;;;5.53;;